Time;durP1;ratioP1;P1;durP2;ratioP2;P2;SDS_P1;SDS_P2;PMS_P1;PMS_P2;Temp;Humidity;BMP_temperature;BMP_pressure;BME280_temperature;BME280_humidity;BME280_pressure;Samples;Min_cycle;Max_cycle;Signal;HPM_P1;HPM_P2
2021/09/26 00:00:17;;;;;;;7.30;6.60;;;;;;;18.59;64.25;101335.50;5058175;28;20177;-64
2021/09/26 00:02:43;;;;;;;7.30;6.60;;;;;;;18.59;63.86;101330.22;5058298;28;20551;-64
2021/09/26 00:05:10;;;;;;;7.80;7.10;;;;;;;18.99;63.02;101332.31;5058343;28;20543;-64
2021/09/26 00:07:35;;;;;;;7.30;6.60;;;;;;;18.99;62.84;101334.94;5058332;28;20201;-64
2021/09/26 00:10:01;;;;;;;8.20;7.07;;;;;;;19.13;62.25;101337.34;5057906;28;20433;-64
2021/09/26 00:12:26;;;;;;;8.13;7.40;;;;;;;18.97;62.82;101344.66;5058148;28;20252;-64
2021/09/26 00:14:51;;;;;;;7.90;7.20;;;;;;;18.97;62.54;101332.34;5059909;28;20187;-65
2021/09/26 00:17:17;;;;;;;8.00;7.20;;;;;;;19.05;63.26;101342.78;5058003;28;20420;-65
2021/09/26 00:19:42;;;;;;;8.20;7.40;;;;;;;18.79;64.16;101344.00;5059226;28;20181;-65
2021/09/26 00:22:08;;;;;;;8.20;7.40;;;;;;;18.96;63.68;101340.28;5062336;28;20184;-65
2021/09/26 00:24:33;;;;;;;8.80;7.73;;;;;;;19.02;63.47;101335.78;5061643;28;20209;-65
2021/09/26 00:26:59;;;;;;;8.23;7.43;;;;;;;18.96;63.84;101345.56;5061711;28;20590;-64
2021/09/26 00:29:25;;;;;;;7.93;7.23;;;;;;;18.50;64.86;101337.38;5062190;28;20188;-65
2021/09/26 00:31:51;;;;;;;8.43;7.63;;;;;;;18.20;66.57;101349.22;5044298;28;20268;-65
2021/09/26 00:34:16;;;;;;;8.10;7.37;;;;;;;18.24;66.52;101347.41;5061590;28;20856;-65
2021/09/26 00:36:41;;;;;;;9.17;7.73;;;;;;;18.49;65.28;101340.03;5061455;28;20581;-64
2021/09/26 00:39:07;;;;;;;7.40;6.60;;;;;;;18.71;64.53;101339.75;5047777;28;20193;-64
2021/09/26 00:41:32;;;;;;;13.33;7.37;;;;;;;18.22;66.53;101341.28;5041698;28;20247;-65
2021/09/26 00:43:57;;;;;;;7.27;6.67;;;;;;;18.64;65.35;101342.47;5041861;28;20162;-66
2021/09/26 00:46:23;;;;;;;7.30;6.70;;;;;;;18.27;66.37;101337.69;5041351;28;20263;-65
2021/09/26 00:48:48;;;;;;;7.80;7.00;;;;;;;18.25;66.93;101333.31;5041240;28;20265;-65
2021/09/26 00:51:13;;;;;;;8.10;7.30;;;;;;;18.23;66.76;101329.84;5041379;28;20664;-66
2021/09/26 00:53:42;;;;;;;7.67;6.97;;;;;;;18.18;67.04;101329.88;5041758;28;20170;-66
2021/09/26 00:56:08;;;;;;;9.90;7.30;;;;;;;17.82;68.50;101337.31;5041303;28;20186;-66
2021/09/26 00:58:34;;;;;;;8.20;6.97;;;;;;;17.62;69.37;101337.53;5041236;28;20471;-66
2021/09/26 01:00:59;;;;;;;7.47;6.77;;;;;;;17.87;68.37;101339.91;5041068;28;20166;-66
2021/09/26 01:03:25;;;;;;;8.10;6.57;;;;;;;18.13;67.81;101337.88;5041409;28;20511;-65
2021/09/26 01:05:58;;;;;;;7.97;7.27;;;;;;;18.45;67.11;101335.69;5041403;28;20198;-66
2021/09/26 01:08:35;;;;;;;8.70;7.80;;;;;;;18.56;66.44;101335.56;5024015;28;20296;-65
2021/09/26 01:11:31;;;;;;;9.13;8.30;;;;;;;18.47;66.98;101331.28;5023878;28;20413;-64
2021/09/26 01:14:15;;;;;;;10.13;9.13;;;;;;;18.67;66.40;101338.91;5039657;28;20465;-64
2021/09/26 01:17:03;;;;;;;15.90;14.07;;;;;;;18.28;67.50;101335.91;5023887;28;20458;-65
2021/09/26 01:19:47;;;;;;;15.70;14.20;;;;;;;18.20;68.50;101337.78;5040898;28;20451;-64
2021/09/26 01:22:17;;;;;;;19.50;17.60;;;;;;;17.89;69.48;101333.72;5040842;28;20673;-63
2021/09/26 01:25:12;;;;;;;23.00;19.80;;;;;;;18.26;68.59;101332.44;5037399;28;20436;-66
2021/09/26 01:28:09;;;;;;;23.23;20.83;;;;;;;18.41;67.86;101334.84;5060703;28;20805;-64
2021/09/26 01:30:37;;;;;;;23.40;20.83;;;;;;;18.14;68.95;101339.63;5056564;28;20458;-64
2021/09/26 01:33:24;;;;;;;21.50;19.30;;;;;;;18.23;69.25;101335.97;5060362;28;20470;-64
2021/09/26 01:36:09;;;;;;;20.63;16.47;;;;;;;18.36;68.70;101334.06;5060540;28;20527;-65
2021/09/26 01:38:41;;;;;;;17.63;15.83;;;;;;;17.94;70.44;101336.31;5060564;28;20503;-65
2021/09/26 01:41:28;;;;;;;17.83;16.03;;;;;;;18.31;69.35;101335.91;5060435;28;20420;-66
2021/09/26 01:43:55;;;;;;;18.13;16.17;;;;;;;18.08;70.36;101333.53;5043155;28;20768;-64
2021/09/26 01:46:32;;;;;;;19.03;15.23;;;;;;;17.98;70.93;101332.75;5043052;28;20406;-64
2021/09/26 01:49:06;;;;;;;14.93;13.33;;;;;;;17.95;71.19;101338.06;5043003;28;20470;-65
2021/09/26 01:51:40;;;;;;;14.20;12.80;;;;;;;17.90;71.49;101331.94;5042654;28;20483;-65
2021/09/26 01:54:08;;;;;;;18.10;13.00;;;;;;;18.27;70.55;101335.06;5060275;28;20793;-65
2021/09/26 01:56:34;;;;;;;16.80;13.93;;;;;;;18.37;70.15;101334.94;5042914;28;20755;-65
2021/09/26 01:58:59;;;;;;;17.00;13.50;;;;;;;18.38;70.17;101332.28;5042917;28;20416;-64
2021/09/26 02:01:24;;;;;;;15.90;13.40;;;;;;;18.16;70.98;101334.31;5042634;28;20174;-64
2021/09/26 02:03:50;;;;;;;18.03;13.93;;;;;;;18.08;71.57;101334.41;5060292;28;20223;-64
2021/09/26 02:06:16;;;;;;;16.10;14.60;;;;;;;18.21;71.10;101324.56;5059736;28;20181;-66
2021/09/26 02:08:42;;;;;;;18.63;16.53;;;;;;;18.32;70.75;101327.06;5060006;28;20169;-65
2021/09/26 02:11:10;;;;;;;18.30;16.40;;;;;;;17.93;72.08;101329.31;5060170;28;20527;-65
2021/09/26 02:13:37;;;;;;;19.70;17.60;;;;;;;18.06;72.02;101328.25;5059929;28;20507;-65
2021/09/26 02:16:03;;;;;;;22.07;19.73;;;;;;;18.30;71.07;101321.81;5042451;28;20490;-66
2021/09/26 02:18:29;;;;;;;21.37;18.13;;;;;;;18.35;71.25;101324.41;5042693;28;20495;-65
2021/09/26 02:20:55;;;;;;;25.83;22.07;;;;;;;18.13;71.62;101327.31;5042301;28;20230;-65
2021/09/26 02:23:22;;;;;;;29.27;21.60;;;;;;;18.28;71.65;101330.63;5042349;28;20412;-65
2021/09/26 02:25:47;;;;;;;25.97;21.90;;;;;;;18.38;71.24;101332.28;5059999;28;20169;-65
2021/09/26 02:28:14;;;;;;;37.43;28.67;;;;;;;18.09;72.05;101322.97;5059588;28;20473;-65
2021/09/26 02:30:40;;;;;;;48.27;38.90;;;;;;;17.79;73.47;101332.97;5059534;28;20299;-64
2021/09/26 02:33:05;;;;;;;48.93;36.23;;;;;;;17.94;73.17;101321.38;5059960;28;20815;-65
2021/09/26 02:35:30;;;;;;;57.43;44.70;;;;;;;18.08;72.62;101318.56;5059382;28;20411;-65
2021/09/26 02:37:56;;;;;;;60.53;48.57;;;;;;;17.87;73.25;101316.16;5059423;28;20265;-65
2021/09/26 02:40:21;;;;;;;76.80;54.30;;;;;;;18.30;71.76;101320.94;5059462;28;20173;-65
2021/09/26 02:43:05;;;;;;;115.03;77.13;;;;;;;18.24;71.90;101315.72;5058280;28;20185;-65
2021/09/26 02:45:36;;;;;;;108.20;78.53;;;;;;;18.16;72.60;101319.34;5059238;28;20197;-65
2021/09/26 02:48:13;;;;;;;133.27;88.40;;;;;;;17.89;73.28;101323.16;5059130;28;20460;-65
2021/09/26 02:50:40;;;;;;;130.70;90.53;;;;;;;18.21;72.38;101313.13;5041589;28;20418;-65
2021/09/26 02:53:07;;;;;;;129.07;85.20;;;;;;;17.75;73.99;101315.41;5059526;28;20408;-65
2021/09/26 02:55:34;;;;;;;132.37;89.70;;;;;;;17.89;73.34;101317.00;5041992;28;20784;-65
2021/09/26 02:58:00;;;;;;;125.33;83.70;;;;;;;17.71;74.05;101313.72;5058916;28;20447;-65
2021/09/26 03:00:40;;;;;;;132.50;85.67;;;;;;;18.11;72.80;101307.97;5059143;28;20469;-66
2021/09/26 03:03:17;;;;;;;111.33;79.20;;;;;;;17.75;74.65;101310.16;5059054;28;20465;-66
2021/09/26 03:05:44;;;;;;;109.00;73.83;;;;;;;17.70;74.65;101316.34;5059184;28;20460;-67
2021/09/26 03:08:10;;;;;;;90.00;60.70;;;;;;;17.48;75.25;101304.28;5058733;28;20463;-66
2021/09/26 03:10:37;;;;;;;74.43;55.30;;;;;;;17.54;74.94;101307.72;5058617;28;20424;-66
2021/09/26 03:13:03;;;;;;;56.57;43.23;;;;;;;17.43;75.65;101306.06;5059220;28;20420;-66
2021/09/26 03:15:28;;;;;;;42.17;31.13;;;;;;;17.37;75.75;101311.38;5058691;28;20851;-65
2021/09/26 03:17:54;;;;;;;31.77;25.37;;;;;;;17.39;75.74;101304.34;5058754;28;20231;-64
2021/09/26 03:20:19;;;;;;;36.30;27.90;;;;;;;17.50;75.55;101299.84;5058746;28;20177;-66
2021/09/26 03:22:45;;;;;;;27.07;23.57;;;;;;;17.62;75.40;101303.25;5041309;28;20204;-65
2021/09/26 03:25:11;;;;;;;24.43;20.37;;;;;;;17.57;75.47;101299.78;5058494;28;20527;-65
2021/09/26 03:27:36;;;;;;;26.27;21.30;;;;;;;17.82;74.95;101296.00;5058760;28;20284;-65
2021/09/26 03:30:01;;;;;;;21.70;18.40;;;;;;;17.55;75.32;101296.28;5055866;28;20177;-65
2021/09/26 03:32:26;;;;;;;16.03;13.93;;;;;;;18.03;74.04;101293.16;5045759;28;20193;-65
2021/09/26 03:34:52;;;;;;;16.00;13.13;;;;;;;18.12;73.69;101293.91;5038879;28;20408;-65
2021/09/26 03:37:18;;;;;;;14.50;13.00;;;;;;;18.16;72.93;101300.03;5038344;28;20184;-65
2021/09/26 03:39:44;;;;;;;12.80;11.50;;;;;;;17.83;74.58;101297.75;5038390;28;20605;-65
2021/09/26 03:42:09;;;;;;;16.33;13.00;;;;;;;17.72;74.90;101304.88;5021829;28;20170;-65
2021/09/26 03:44:34;;;;;;;12.20;10.43;;;;;;;17.36;76.44;101299.13;5038358;28;20516;-66
2021/09/26 03:47:00;;;;;;;12.07;10.90;;;;;;;17.60;76.09;101295.38;5038291;28;20215;-66
2021/09/26 03:49:26;;;;;;;15.07;10.90;;;;;;;17.87;75.07;101293.28;5038612;28;20240;-65
2021/09/26 03:51:52;;;;;;;12.03;10.30;;;;;;;17.88;75.43;101284.47;5020776;28;20229;-65
2021/09/26 03:54:18;;;;;;;11.40;10.30;;;;;;;17.81;75.48;101286.31;5037905;28;20220;-65
2021/09/26 03:56:44;;;;;;;12.87;10.67;;;;;;;17.81;75.62;101283.69;5021237;28;20197;-65
2021/09/26 03:59:13;;;;;;;11.50;10.40;;;;;;;18.15;74.14;101282.44;5038084;28;20433;-69
2021/09/26 04:01:39;;;;;;;13.27;10.87;;;;;;;17.93;75.28;101287.13;5037883;28;20723;-66
2021/09/26 04:04:05;;;;;;;14.10;10.60;;;;;;;18.01;75.33;101279.97;5038473;28;20730;-67
2021/09/26 04:06:30;;;;;;;11.47;10.40;;;;;;;17.94;75.42;101281.81;5020899;28;20490;-66
2021/09/26 04:08:55;;;;;;;11.97;10.70;;;;;;;18.11;74.36;101278.09;5038127;28;20166;-65
2021/09/26 04:11:21;;;;;;;12.57;10.17;;;;;;;17.78;76.36;101277.56;5038194;28;20185;-65
2021/09/26 04:13:46;;;;;;;13.60;12.20;;;;;;;17.93;75.38;101279.22;5038149;28;20174;-66
2021/09/26 04:16:12;;;;;;;14.90;13.30;;;;;;;17.85;76.37;101274.84;5038037;28;20227;-66
2021/09/26 04:18:37;;;;;;;15.47;13.87;;;;;;;17.75;76.70;101278.50;5038229;28;20178;-66
2021/09/26 04:21:02;;;;;;;19.13;16.27;;;;;;;17.45;78.16;101271.78;5037775;28;20182;-66
2021/09/26 04:23:28;;;;;;;24.90;19.13;;;;;;;17.55;77.82;101272.56;5038048;28;20424;-66
2021/09/26 04:25:54;;;;;;;27.53;20.10;;;;;;;17.66;78.21;101268.06;5038229;28;20475;-66
2021/09/26 04:28:19;;;;;;;27.53;22.10;;;;;;;17.81;77.42;101267.84;5037933;28;20209;-66
2021/09/26 04:30:44;;;;;;;25.97;23.27;;;;;;;18.06;76.10;101270.22;5020475;28;20535;-66
2021/09/26 04:33:10;;;;;;;29.20;23.60;;;;;;;17.91;76.71;101265.13;5038204;28;20174;-67
2021/09/26 04:35:35;;;;;;;32.17;25.63;;;;;;;17.53;78.53;101263.81;5037924;28;20261;-68
2021/09/26 04:38:00;;;;;;;31.07;25.33;;;;;;;17.61;77.95;101275.13;5037640;28;20201;-67
2021/09/26 04:40:25;;;;;;;33.53;25.70;;;;;;;17.79;76.86;101261.75;5037932;28;20268;-68
2021/09/26 04:42:51;;;;;;;33.67;25.13;;;;;;;17.78;77.26;101259.09;5037609;28;20175;-67
2021/09/26 04:45:17;;;;;;;29.53;24.17;;;;;;;17.44;78.37;101273.56;5037719;28;20273;-68
2021/09/26 04:47:43;;;;;;;32.53;26.03;;;;;;;17.50;78.00;101257.66;5038259;28;20305;-68
2021/09/26 04:50:09;;;;;;;27.63;24.00;;;;;;;17.62;78.44;101263.72;5037634;28;20494;-65
2021/09/26 04:52:36;;;;;;;25.70;22.40;;;;;;;17.79;77.62;101264.38;5037457;28;20495;-66
2021/09/26 04:55:02;;;;;;;22.60;19.07;;;;;;;17.60;78.33;101261.09;5037975;28;20490;-66
2021/09/26 04:57:27;;;;;;;21.83;18.40;;;;;;;17.37;79.35;101266.59;5037616;28;20467;-66
2021/09/26 04:59:53;;;;;;;21.90;18.57;;;;;;;17.60;78.67;101262.84;5037472;28;20859;-67
2021/09/26 05:02:18;;;;;;;19.97;18.07;;;;;;;17.70;78.43;101272.41;5037940;28;20170;-67
2021/09/26 05:04:43;;;;;;;17.77;15.87;;;;;;;17.60;79.06;101268.09;5037479;28;20212;-69
2021/09/26 05:07:08;;;;;;;18.17;15.97;;;;;;;17.59;78.31;101269.88;5039425;28;20201;-68
2021/09/26 05:09:34;;;;;;;16.73;15.10;;;;;;;17.58;79.30;101270.75;5041344;28;20442;-66
2021/09/26 05:11:59;;;;;;;16.93;15.10;;;;;;;17.77;78.07;101270.56;5041129;28;20528;-67
2021/09/26 05:14:24;;;;;;;14.90;13.60;;;;;;;17.43;79.08;101274.44;5040986;28;20177;-68
2021/09/26 05:16:50;;;;;;;16.00;14.40;;;;;;;17.70;77.83;101277.66;5041537;28;20190;-66
2021/09/26 05:19:15;;;;;;;14.57;13.27;;;;;;;17.54;79.12;101273.47;5040981;28;20552;-66
2021/09/26 05:21:41;;;;;;;15.53;14.00;;;;;;;17.81;77.84;101273.13;5040820;28;20556;-66
2021/09/26 05:24:06;;;;;;;14.53;13.33;;;;;;;17.39;79.45;101282.41;5041231;28;20178;-66
2021/09/26 05:26:31;;;;;;;15.10;13.70;;;;;;;17.53;79.19;101271.72;5041112;28;20486;-66
2021/09/26 05:28:57;;;;;;;15.80;14.20;;;;;;;17.54;79.07;101274.31;5023813;28;20536;-66
2021/09/26 05:31:22;;;;;;;16.23;14.70;;;;;;;17.60;78.88;101273.38;5041009;28;20181;-66
2021/09/26 05:33:47;;;;;;;16.90;15.20;;;;;;;17.64;79.00;101275.09;5040340;28;20194;-66
2021/09/26 05:36:13;;;;;;;16.40;14.80;;;;;;;18.12;77.01;101271.94;5040628;28;20416;-67
2021/09/26 05:38:38;;;;;;;17.60;15.70;;;;;;;17.49;79.36;101271.75;5041345;28;20249;-66
2021/09/26 05:41:03;;;;;;;16.50;15.10;;;;;;;17.89;77.77;101278.31;5040304;28;20178;-66
2021/09/26 05:43:29;;;;;;;16.47;14.53;;;;;;;17.97;77.50;101275.63;5040517;28;20241;-66
2021/09/26 05:45:54;;;;;;;17.47;15.50;;;;;;;17.83;77.82;101267.84;5035116;28;20192;-67
2021/09/26 05:48:20;;;;;;;17.40;15.57;;;;;;;18.00;77.85;101272.94;5059824;28;20201;-66
2021/09/26 05:50:45;;;;;;;17.13;15.63;;;;;;;18.29;76.71;101269.03;5059900;28;20188;-66
2021/09/26 05:53:11;;;;;;;17.07;14.97;;;;;;;17.96;77.43;101271.25;5026665;28;20276;-66
2021/09/26 05:55:36;;;;;;;16.03;14.33;;;;;;;18.47;75.60;101268.78;5029256;28;20197;-65
2021/09/26 05:58:02;;;;;;;16.73;14.50;;;;;;;17.78;78.27;101267.91;5040267;28;20201;-65
2021/09/26 06:00:27;;;;;;;16.60;14.83;;;;;;;17.98;77.58;101267.69;5023026;28;20182;-65
2021/09/26 06:02:53;;;;;;;20.13;16.00;;;;;;;18.29;76.80;101266.41;5040149;28;20446;-66
2021/09/26 06:05:18;;;;;;;14.63;13.17;;;;;;;18.07;77.12;101269.34;5039862;28;20555;-67
2021/09/26 06:07:44;;;;;;;16.77;15.00;;;;;;;18.11;76.75;101265.75;5040304;28;20224;-67
2021/09/26 06:10:10;;;;;;;17.00;15.40;;;;;;;18.40;76.10;101260.97;5040955;28;20230;-65
2021/09/26 06:12:35;;;;;;;16.67;15.07;;;;;;;18.61;75.11;101265.06;5041207;28;20166;-66
2021/09/26 06:15:03;;;;;;;16.90;15.23;;;;;;;18.22;76.26;101262.09;5040061;28;20397;-65
2021/09/26 06:17:30;;;;;;;16.70;15.13;;;;;;;19.01;73.68;101265.31;5039597;28;20182;-66
2021/09/26 06:19:55;;;;;;;15.73;14.13;;;;;;;19.25;71.84;101259.63;5050508;28;20428;-66
2021/09/26 06:22:24;;;;;;;16.30;14.90;;;;;;;20.13;68.53;101257.91;5060254;28;20404;-67
2021/09/26 06:24:50;;;;;;;14.77;13.47;;;;;;;21.66;63.77;101257.69;5059610;28;20224;-67
2021/09/26 06:27:15;;;;;;;13.50;12.30;;;;;;;21.57;63.02;101255.28;5059508;28;20460;-67
2021/09/26 06:29:40;;;;;;;12.80;11.60;;;;;;;22.49;59.86;101254.34;5059365;28;20502;-66
2021/09/26 06:32:06;;;;;;;13.27;11.97;;;;;;;22.34;59.98;101257.47;5059120;28;20181;-66
2021/09/26 06:34:31;;;;;;;11.47;10.47;;;;;;;23.29;57.00;101258.78;5058970;28;20183;-67
2021/09/26 06:36:58;;;;;;;11.50;10.43;;;;;;;21.85;61.30;101250.06;5059280;28;20166;-67
2021/09/26 06:39:23;;;;;;;11.40;10.50;;;;;;;21.80;61.65;101246.66;5058851;28;20508;-66
2021/09/26 06:41:48;;;;;;;13.27;11.87;;;;;;;20.59;65.08;101269.22;5059237;28;20503;-67
2021/09/26 06:44:13;;;;;;;13.60;12.30;;;;;;;20.54;65.72;101269.34;5059806;28;20178;-66
2021/09/26 06:46:39;;;;;;;14.27;12.00;;;;;;;19.95;67.06;101269.75;5059087;28;20188;-66
2021/09/26 06:49:05;;;;;;;16.10;13.43;;;;;;;20.45;66.42;101269.56;5059045;28;20177;-66
2021/09/26 06:51:32;;;;;;;13.27;12.00;;;;;;;20.84;65.11;101270.41;5059044;28;20472;-67
2021/09/26 06:53:57;;;;;;;13.67;12.37;;;;;;;20.97;64.67;101272.75;5058332;28;20491;-67
2021/09/26 06:56:22;;;;;;;13.67;12.40;;;;;;;21.49;62.44;101263.41;5050609;28;20455;-67
2021/09/26 06:58:48;;;;;;;13.07;11.80;;;;;;;23.65;56.28;101252.19;5058239;28;20213;-66
2021/09/26 07:01:13;;;;;;;11.07;10.07;;;;;;;24.32;53.76;101254.09;5057916;28;20200;-66
2021/09/26 07:03:38;;;;;;;10.80;9.90;;;;;;;23.79;54.80;101255.22;5058291;28;20182;-66
2021/09/26 07:06:03;;;;;;;12.27;10.33;;;;;;;24.63;52.51;101241.34;5058367;28;20272;-67
2021/09/26 07:08:29;;;;;;;11.10;10.00;;;;;;;24.64;52.03;101251.06;5058297;28;20197;-67
2021/09/26 07:10:54;;;;;;;9.67;8.77;;;;;;;24.09;53.17;101257.66;5058424;28;20178;-66
2021/09/26 07:13:20;;;;;;;10.53;9.57;;;;;;;25.55;48.78;101253.41;5058053;28;20178;-67
2021/09/26 07:15:45;;;;;;;9.73;8.93;;;;;;;24.79;51.07;101262.88;5040481;28;20185;-67
2021/09/26 07:18:10;;;;;;;9.80;9.00;;;;;;;24.53;51.60;101264.78;5058608;28;20170;-68
2021/09/26 07:20:36;;;;;;;9.47;8.77;;;;;;;26.10;48.05;101257.16;5058032;28;20177;-68
2021/09/26 07:23:02;;;;;;;9.73;8.73;;;;;;;25.69;48.92;101254.56;5058053;28;20205;-68
2021/09/26 07:25:28;;;;;;;10.10;9.20;;;;;;;24.28;51.67;101268.44;5058248;28;20177;-68
2021/09/26 07:27:55;;;;;;;9.57;8.77;;;;;;;25.72;48.35;101262.44;5057780;28;20716;-67
2021/09/26 07:30:20;;;;;;;9.43;8.73;;;;;;;25.42;49.86;101252.22;5057231;28;20416;-68
2021/09/26 07:32:46;;;;;;;9.37;8.57;;;;;;;27.35;45.19;101248.28;5058257;28;20450;-66
2021/09/26 07:35:12;;;;;;;9.00;8.17;;;;;;;26.08;47.43;101250.16;5057701;28;20188;-66
2021/09/26 07:37:37;;;;;;;9.50;8.60;;;;;;;26.22;47.16;101247.69;5057878;28;20235;-66
2021/09/26 07:40:03;;;;;;;9.20;8.40;;;;;;;25.23;49.52;101257.47;5058814;28;20271;-66
2021/09/26 07:42:29;;;;;;;8.60;8.00;;;;;;;26.77;45.45;101249.47;5057973;28;20215;-66
2021/09/26 07:44:58;;;;;;;8.50;7.63;;;;;;;27.72;43.39;101242.78;5040635;28;20764;-66
2021/09/26 07:47:24;;;;;;;8.67;7.80;;;;;;;26.50;46.27;101247.19;5058668;28;20530;-66
2021/09/26 07:49:49;;;;;;;8.13;7.53;;;;;;;27.00;44.54;101242.09;5058010;28;20499;-70
2021/09/26 07:52:14;;;;;;;9.50;8.80;;;;;;;27.17;44.99;101244.75;5057834;28;20487;-70
2021/09/26 07:54:40;;;;;;;9.07;8.27;;;;;;;27.47;44.56;101248.59;5058509;28;20179;-68
2021/09/26 07:57:05;;;;;;;8.07;7.37;;;;;;;28.20;42.01;101249.06;5057814;28;20268;-67
2021/09/26 07:59:30;;;;;;;8.07;7.37;;;;;;;27.78;43.30;101241.56;5057870;28;20173;-67
2021/09/26 08:01:56;;;;;;;8.00;7.40;;;;;;;27.75;43.47;101239.91;5058334;28;20174;-67
2021/09/26 08:04:21;;;;;;;8.20;7.50;;;;;;;28.40;41.28;101253.31;5056806;28;20180;-66
2021/09/26 08:06:47;;;;;;;8.17;7.47;;;;;;;27.68;43.01;101246.56;5043276;28;20236;-68
2021/09/26 08:09:12;;;;;;;8.03;7.33;;;;;;;25.50;47.58;101243.88;5057543;28;20173;-68
2021/09/26 08:11:37;;;;;;;8.10;7.40;;;;;;;27.66;43.21;101241.31;5053141;28;20420;-68
2021/09/26 08:14:02;;;;;;;8.00;7.30;;;;;;;28.09;42.52;101239.91;5056970;28;20530;-69
2021/09/26 08:16:28;;;;;;;8.17;7.57;;;;;;;27.01;44.68;101247.38;5055669;28;20188;-70
2021/09/26 08:18:53;;;;;;;7.27;6.57;;;;;;;28.15;41.92;101240.41;5057044;28;20213;-69
2021/09/26 08:21:19;;;;;;;8.40;7.60;;;;;;;27.54;43.02;101240.16;5056907;28;20256;-69
2021/09/26 08:23:44;;;;;;;12.50;7.40;;;;;;;28.05;42.23;101232.03;5057404;28;20186;-70
2021/09/26 08:26:09;;;;;;;7.20;6.50;;;;;;;28.54;41.44;101233.72;5057106;28;20542;-69
2021/09/26 08:28:34;;;;;;;8.30;7.50;;;;;;;28.67;41.24;101239.28;5056947;28;20209;-69
2021/09/26 08:31:00;;;;;;;8.00;7.33;;;;;;;29.55;38.83;101233.97;5056278;28;20188;-70
2021/09/26 08:33:26;;;;;;;7.70;7.00;;;;;;;29.95;38.13;101235.13;5057019;28;20201;-69
2021/09/26 08:35:51;;;;;;;7.43;6.73;;;;;;;29.36;38.71;101236.97;5040033;28;20271;-70
2021/09/26 08:38:16;;;;;;;7.50;6.80;;;;;;;29.32;39.47;101234.53;5057429;28;20515;-69
2021/09/26 08:40:42;;;;;;;7.20;6.60;;;;;;;28.15;41.82;101234.19;5057660;28;20182;-69
2021/09/26 08:43:09;;;;;;;7.30;6.50;;;;;;;28.38;40.73;101233.75;5035642;28;20192;-69
2021/09/26 08:45:38;;;;;;;7.63;6.40;;;;;;;27.93;41.32;101230.03;5061685;28;20211;-68
2021/09/26 08:48:04;;;;;;;6.70;6.20;;;;;;;29.38;39.79;101221.59;5061017;28;20471;-69
2021/09/26 08:50:31;;;;;;;7.97;7.17;;;;;;;28.99;39.63;101235.63;5060409;28;20423;-67
2021/09/26 08:52:57;;;;;;;7.30;6.70;;;;;;;28.70;40.85;101232.88;5061097;28;21073;-69
2021/09/26 08:55:23;;;;;;;7.43;6.73;;;;;;;29.83;38.65;101240.28;5061120;28;20420;-68
2021/09/26 08:57:48;;;;;;;6.73;6.23;;;;;;;27.65;42.99;101252.09;5061214;28;20455;-69
2021/09/26 09:00:15;;;;;;;7.10;6.50;;;;;;;27.37;43.58;101248.22;5060812;28;20197;-69
2021/09/26 09:02:42;;;;;;;7.33;6.73;;;;;;;27.52;42.82;101242.06;5060902;28;20181;-69
2021/09/26 09:05:26;;;;;;;7.50;6.90;;;;;;;28.01;42.17;101241.22;5061544;28;20420;-69
2021/09/26 09:08:14;;;;;;;7.37;6.80;;;;;;;29.07;40.33;101233.34;5058450;28;20459;-70
2021/09/26 09:10:48;;;;;;;6.77;6.27;;;;;;;30.19;38.12;101221.91;5041236;28;20721;-68
2021/09/26 09:13:36;;;;;;;7.17;6.40;;;;;;;30.19;37.87;101230.84;5056315;28;20495;-68
2021/09/26 09:16:10;;;;;;;7.63;7.03;;;;;;;29.63;39.18;101230.78;5059205;28;20435;-67
2021/09/26 09:18:45;;;;;;;6.50;6.00;;;;;;;26.84;44.27;101242.84;5058512;28;20462;-67
2021/09/26 09:21:15;;;;;;;7.30;6.63;;;;;;;29.34;39.37;101222.75;5060505;28;20713;-68
2021/09/26 09:23:40;;;;;;;7.00;6.50;;;;;;;28.01;42.20;101237.63;5060708;28;20405;-69
2021/09/26 09:26:06;;;;;;;6.73;6.20;;;;;;;27.58;43.29;101224.78;5060568;28;20880;-70
2021/09/26 09:28:38;;;;;;;7.00;6.50;;;;;;;28.17;42.20;101224.25;5060757;28;20204;-70
2021/09/26 09:31:03;;;;;;;6.93;6.43;;;;;;;28.55;41.88;101216.69;5060216;28;20181;-69
2021/09/26 09:33:38;;;;;;;8.57;6.40;;;;;;;28.79;41.44;101224.25;5060079;28;20797;-69
2021/09/26 09:36:03;;;;;;;6.43;5.90;;;;;;;28.90;40.87;101226.28;5060285;28;20201;-70
2021/09/26 09:38:28;;;;;;;6.83;6.27;;;;;;;30.14;38.72;101227.56;5060477;28;20444;-70
2021/09/26 09:40:56;;;;;;;6.63;6.13;;;;;;;27.63;42.95;101232.56;5060647;28;20205;-70
2021/09/26 09:43:22;;;;;;;6.17;5.57;;;;;;;28.03;42.56;101230.41;5060366;28;20224;-69
2021/09/26 09:45:52;;;;;;;6.27;5.87;;;;;;;28.99;40.33;101222.19;5060169;28;20482;-66
2021/09/26 09:48:31;;;;;;;6.10;5.60;;;;;;;28.81;41.60;101222.34;5060684;28;20440;-68
2021/09/26 09:51:01;;;;;;;6.50;6.00;;;;;;;29.73;38.86;101215.81;5059898;28;20467;-69
2021/09/26 09:53:41;;;;;;;6.70;6.20;;;;;;;29.11;40.27;101232.19;5059407;28;20408;-69
2021/09/26 09:56:17;;;;;;;6.43;5.83;;;;;;;28.90;41.16;101226.28;5060009;28;20423;-68
2021/09/26 09:58:45;;;;;;;6.73;6.07;;;;;;;28.70;41.36;101227.50;5060030;28;20404;-69
2021/09/26 10:01:27;;;;;;;6.43;5.93;;;;;;;28.90;40.80;101221.81;5059871;28;20862;-68
2021/09/26 10:03:59;;;;;;;6.37;5.90;;;;;;;28.93;40.83;101219.88;5060024;28;20415;-71
2021/09/26 10:06:34;;;;;;;6.63;5.40;;;;;;;30.04;38.48;101213.03;5060232;28;20874;-70
2021/09/26 10:09:03;;;;;;;5.93;5.43;;;;;;;28.20;41.63;101221.41;5060029;28;20743;-72
2021/09/26 10:11:30;;;;;;;6.00;5.60;;;;;;;28.64;41.18;101209.06;5059831;28;20896;-71
2021/09/26 10:13:58;;;;;;;6.30;5.70;;;;;;;28.56;41.61;101210.38;5060292;28;20495;-71
2021/09/26 10:16:23;;;;;;;6.50;5.93;;;;;;;28.85;40.70;101218.53;5060695;28;20400;-70
2021/09/26 10:18:49;;;;;;;6.30;5.70;;;;;;;27.52;44.05;101209.03;5059920;28;20419;-70
2021/09/26 10:21:14;;;;;;;6.33;5.87;;;;;;;27.90;43.49;101204.25;5040987;28;20420;-70
2021/09/26 10:23:44;;;;;;;6.90;6.27;;;;;;;29.15;40.23;101190.78;5040131;28;20177;-69
2021/09/26 10:26:10;;;;;;;5.90;5.50;;;;;;;28.27;42.19;101195.97;5039649;28;20476;-69
2021/09/26 10:28:36;;;;;;;5.90;5.50;;;;;;;26.26;46.47;101209.16;5039572;28;20503;-70
2021/09/26 10:31:04;;;;;;;6.57;6.07;;;;;;;26.74;45.08;101209.53;5022807;28;20421;-70
2021/09/26 10:33:31;;;;;;;6.13;5.60;;;;;;;27.36;44.20;101208.97;5022360;28;20166;-67
2021/09/26 10:35:57;;;;;;;5.83;5.43;;;;;;;27.06;44.81;101204.28;5039494;28;20451;-68
2021/09/26 10:38:24;;;;;;;6.23;5.83;;;;;;;26.95;45.92;101187.94;5022783;28;20491;-68
2021/09/26 10:40:51;;;;;;;6.23;5.73;;;;;;;27.28;44.49;101200.47;5021967;28;20413;-68
2021/09/26 10:43:18;;;;;;;6.60;6.10;;;;;;;26.98;45.36;101187.78;5039289;28;20412;-68
2021/09/26 10:45:43;;;;;;;6.60;6.00;;;;;;;26.44;47.09;101193.16;5044344;28;20416;-68
2021/09/26 10:48:09;;;;;;;6.33;5.73;;;;;;;26.84;45.96;101181.34;5058897;28;20467;-67
2021/09/26 10:50:39;;;;;;;6.33;5.90;;;;;;;26.87;45.59;101191.00;5041298;28;20193;-70
2021/09/26 10:53:10;;;;;;;6.47;5.87;;;;;;;27.43;44.50;101197.03;5059279;28;20414;-68
2021/09/26 10:55:36;;;;;;;6.57;5.87;;;;;;;27.05;45.32;101186.53;5041521;28;20424;-70
2021/09/26 10:58:07;;;;;;;6.47;5.87;;;;;;;27.13;45.11;101184.31;5058984;28;20699;-70
2021/09/26 11:00:38;;;;;;;6.30;5.80;;;;;;;27.10;45.80;101180.94;5058769;28;20413;-70
2021/09/26 11:03:12;;;;;;;6.63;6.00;;;;;;;25.95;48.39;101175.91;5041422;28;20451;-70
2021/09/26 11:05:49;;;;;;;7.00;6.30;;;;;;;26.65;47.00;101168.00;5058173;28;20424;-70
2021/09/26 11:08:23;;;;;;;6.73;6.17;;;;;;;25.74;48.25;101169.78;5058623;28;20759;-69
2021/09/26 11:10:51;;;;;;;5.97;5.57;;;;;;;26.04;47.43;101167.47;5058884;28;20534;-70
2021/09/26 11:13:20;;;;;;;7.63;6.20;;;;;;;27.01;45.80;101161.72;5058691;28;20427;-70
2021/09/26 11:16:20;;;;;;;6.70;6.20;;;;;;;26.93;45.60;101165.75;5058966;28;20857;-70
2021/09/26 11:18:46;;;;;;;6.50;6.00;;;;;;;27.28;44.81;101168.34;4978536;28;20668;-71